Time;durP1;ratioP1;P1;durP2;ratioP2;P2;SDS_P1;SDS_P2;PMS_P1;PMS_P2;Temp;Humidity;BMP_temperature;BMP_pressure;BME280_temperature;BME280_humidity;BME280_pressure;Samples;Min_cycle;Max_cycle;Signal;HPM_P1;HPM_P2
2023/03/25 00:01:00;;;;;;;3.00;0.90;;;8.90;1.00;;;;;;6130196;23;20156;-78
2023/03/25 00:03:28;;;;;;;1.33;0.83;;;8.90;1.00;;;;;;6155863;23;20155;-79
2023/03/25 00:05:56;;;;;;;2.07;0.77;;;9.00;1.00;;;;;;6154638;23;20667;-78
2023/03/25 00:08:24;;;;;;;1.57;0.77;;;9.00;1.00;;;;;;6155754;23;20254;-78
2023/03/25 00:10:53;;;;;;;2.47;0.87;;;9.10;1.00;;;;;;6128572;23;20163;-78
2023/03/25 00:13:20;;;;;;;1.73;0.77;;;9.20;1.00;;;;;;6155335;23;20180;-78
2023/03/25 00:15:56;;;;;;;1.07;0.80;;;9.20;1.00;;;;;;6129756;23;20175;-77
2023/03/25 00:18:23;;;;;;;2.20;0.70;;;9.30;1.00;;;;;;6125713;23;20505;-75
2023/03/25 00:20:50;;;;;;;1.87;0.70;;;9.20;1.00;;;;;;6154275;23;20148;-78
2023/03/25 00:23:17;;;;;;;1.30;0.60;;;9.30;1.00;;;;;;6155324;23;20287;-78
2023/03/25 00:25:43;;;;;;;1.27;0.87;;;9.30;1.00;;;;;;6154482;23;20180;-79
2023/03/25 00:28:10;;;;;;;2.40;0.80;;;9.20;1.00;;;;;;6154365;23;20152;-79
2023/03/25 00:30:37;;;;;;;1.37;0.43;;;9.30;1.00;;;;;;6155061;23;20243;-78
2023/03/25 00:33:03;;;;;;;1.37;0.80;;;9.40;1.00;;;;;;6155190;23;20175;-79
2023/03/25 00:35:28;;;;;;;2.00;0.70;;;9.50;1.00;;;;;;6129461;23;20230;-79
2023/03/25 00:38:01;;;;;;;1.50;0.70;;;9.60;1.00;;;;;;6156594;23;20202;-78
2023/03/25 00:40:29;;;;;;;2.73;1.00;;;9.60;1.00;;;;;;6155550;23;20139;-78
2023/03/25 00:42:55;;;;;;;1.37;0.90;;;9.60;1.00;;;;;;6129502;23;20163;-78
2023/03/25 00:45:21;;;;;;;3.33;1.03;;;9.60;1.00;;;;;;6129312;23;20179;-79
2023/03/25 00:47:47;;;;;;;1.30;0.60;;;9.60;1.00;;;;;;6130050;23;20164;-79
2023/03/25 00:50:13;;;;;;;2.90;1.10;;;9.60;1.00;;;;;;6129971;23;20218;-78
2023/03/25 00:52:40;;;;;;;3.63;0.90;;;9.60;1.00;;;;;;6155667;23;20183;-78
2023/03/25 00:55:06;;;;;;;2.83;0.83;;;9.60;1.00;;;;;;6155005;23;20202;-78
2023/03/25 00:57:31;;;;;;;2.07;0.60;;;9.60;1.00;;;;;;6154916;23;20154;-79
2023/03/25 00:59:57;;;;;;;2.10;0.80;;;9.60;1.00;;;;;;6128421;23;20163;-78
2023/03/25 01:02:23;;;;;;;3.03;0.70;;;9.60;1.00;;;;;;6154805;23;20516;-78
2023/03/25 01:04:49;;;;;;;1.80;0.70;;;9.70;1.00;;;;;;6128312;23;20195;-77
2023/03/25 01:07:17;;;;;;;2.40;0.80;;;9.60;1.00;;;;;;6154646;23;20155;-77
2023/03/25 01:09:45;;;;;;;4.07;1.10;;;9.60;1.00;;;;;;6155304;23;20608;-77
2023/03/25 01:12:11;;;;;;;1.97;0.70;;;9.50;1.00;;;;;;6128083;23;20614;-77
2023/03/25 01:14:37;;;;;;;3.70;0.70;;;9.50;1.00;;;;;;6154637;23;20950;-77
2023/03/25 01:17:02;;;;;;;2.07;0.87;;;9.50;1.00;;;;;;6154659;23;20154;-78
2023/03/25 01:19:28;;;;;;;1.97;0.60;;;9.40;1.00;;;;;;6131233;23;20551;-79
2023/03/25 01:21:54;;;;;;;1.83;0.63;;;9.40;1.00;;;;;;6157154;23;20148;-78
2023/03/25 01:24:19;;;;;;;2.00;0.50;;;9.40;1.00;;;;;;6153797;23;20175;-78
2023/03/25 01:26:45;;;;;;;2.37;0.90;;;9.40;1.00;;;;;;6153469;23;20152;-77
2023/03/25 01:29:13;;;;;;;1.17;0.70;;;9.40;1.00;;;;;;6154357;23;20548;-78
2023/03/25 01:31:39;;;;;;;3.07;0.90;;;9.40;1.00;;;;;;6152645;23;20163;-77
2023/03/25 01:34:06;;;;;;;1.60;0.47;;;9.40;1.00;;;;;;6152404;23;20183;-77
2023/03/25 01:36:32;;;;;;;1.77;0.70;;;9.40;1.00;;;;;;6127009;23;20192;-77
2023/03/25 01:39:00;;;;;;;1.37;0.70;;;9.30;1.00;;;;;;6127146;23;20159;-77
2023/03/25 01:41:26;;;;;;;2.00;0.60;;;9.30;1.00;;;;;;6152733;23;20148;-78
2023/03/25 01:44:08;;;;;;;1.57;0.53;;;9.40;1.00;;;;;;6153036;23;20167;-77
2023/03/25 01:46:37;;;;;;;1.60;0.70;;;9.40;1.00;;;;;;6152696;23;20605;-77
2023/03/25 01:49:06;;;;;;;1.10;0.60;;;9.30;1.00;;;;;;6127088;23;20760;-77
2023/03/25 01:51:37;;;;;;;3.30;0.77;;;9.30;1.00;;;;;;6152854;23;20192;-78
2023/03/25 01:54:03;;;;;;;0.80;0.57;;;9.40;1.00;;;;;;6152497;23;20946;-77
2023/03/25 01:56:41;;;;;;;1.33;0.50;;;9.50;1.00;;;;;;6152917;23;20175;-77
2023/03/25 01:59:09;;;;;;;1.67;0.60;;;9.40;1.00;;;;;;6153165;23;20143;-77
2023/03/25 02:01:36;;;;;;;1.73;0.50;;;9.40;1.00;;;;;;6127512;23;20238;-78
2023/03/25 02:04:08;;;;;;;2.80;0.70;;;9.40;1.00;;;;;;6153022;23;20214;-77
2023/03/25 02:06:46;;;;;;;1.63;0.70;;;9.40;1.00;;;;;;6126624;23;20179;-77
2023/03/25 02:09:15;;;;;;;1.03;0.43;;;9.40;1.00;;;;;;6127157;23;20611;-77
2023/03/25 02:11:41;;;;;;;1.13;0.50;;;9.40;1.00;;;;;;6126796;23;20167;-78
2023/03/25 02:14:14;;;;;;;1.30;0.63;;;9.50;1.00;;;;;;6153062;23;20744;-78
2023/03/25 02:17:02;;;;;;;2.43;0.70;;;9.50;1.00;;;;;;6127011;23;20488;-77
2023/03/25 02:20:19;;;;;;;1.47;0.60;;;9.60;1.00;;;;;;6126873;23;20163;-77
2023/03/25 02:23:08;;;;;;;1.90;0.60;;;9.60;1.00;;;;;;6087106;23;20600;-77
2023/03/25 02:25:50;;;;;;;1.90;0.67;;;9.60;1.00;;;;;;6152936;23;20171;-77
2023/03/25 02:28:35;;;;;;;1.90;0.70;;;9.70;1.00;;;;;;6125962;23;20591;-77
2023/03/25 02:31:17;;;;;;;0.90;0.50;;;9.60;1.00;;;;;;6127005;23;20152;-79
2023/03/25 02:34:14;;;;;;;1.67;0.60;;;9.60;1.00;;;;;;6153387;23;20202;-77
2023/03/25 02:37:02;;;;;;;3.37;0.70;;;9.60;1.00;;;;;;6152402;23;20144;-76
2023/03/25 02:39:46;;;;;;;0.77;0.57;;;9.60;1.00;;;;;;6125953;23;20163;-77
2023/03/25 02:42:39;;;;;;;1.63;0.70;;;9.60;1.00;;;;;;6152629;23;20140;-77
2023/03/25 02:45:21;;;;;;;2.37;0.70;;;9.60;1.00;;;;;;6152309;23;20219;-77
2023/03/25 02:47:53;;;;;;;1.47;0.60;;;9.00;1.00;;;;;;6152709;23;20140;-78
2023/03/25 02:50:27;;;;;;;1.13;0.70;;;9.60;1.00;;;;;;6151909;23;20531;-78
2023/03/25 02:53:03;;;;;;;1.63;0.67;;;9.60;1.00;;;;;;6153493;23;20174;-77
2023/03/25 02:55:30;;;;;;;3.20;0.70;;;9.60;1.00;;;;;;6153613;23;20709;-77
2023/03/25 02:57:58;;;;;;;1.08;0.60;;;9.50;1.00;;;;;;6151966;23;20381;-77
2023/03/25 03:00:27;;;;;;;1.60;0.57;;;9.50;1.00;;;;;;6126685;23;20170;-77
2023/03/25 03:02:58;;;;;;;1.07;0.77;;;9.50;1.00;;;;;;6127918;23;20174;-79
2023/03/25 03:05:40;;;;;;;0.93;0.50;;;9.50;1.00;;;;;;6153412;23;20195;-78
2023/03/25 03:08:29;;;;;;;1.07;0.50;;;9.50;1.00;;;;;;6153826;23;20144;-78
2023/03/25 03:11:20;;;;;;;1.13;0.63;;;9.40;1.00;;;;;;6153705;23;20144;-78
2023/03/25 03:13:59;;;;;;;0.90;0.53;;;9.40;1.00;;;;;;6153942;23;20168;-78
2023/03/25 03:16:50;;;;;;;1.37;0.50;;;9.40;1.00;;;;;;6128399;23;20156;-78
2023/03/25 03:19:53;;;;;;;1.00;0.60;;;9.40;1.00;;;;;;6154894;23;20136;-77
2023/03/25 03:22:51;;;;;;;0.73;0.50;;;9.30;1.00;;;;;;6153931;23;20475;-77
2023/03/25 03:25:37;;;;;;;1.53;0.57;;;9.30;1.00;;;;;;6128113;23;20222;-78
2023/03/25 03:28:23;;;;;;;2.60;0.73;;;9.20;1.00;;;;;;6127983;23;20740;-78
2023/03/25 03:30:57;;;;;;;1.10;0.80;;;9.20;1.00;;;;;;6155519;23;20219;-77
2023/03/25 03:33:42;;;;;;;2.77;0.73;;;9.20;1.00;;;;;;6127906;23;20579;-77
2023/03/25 03:36:12;;;;;;;2.57;0.80;;;9.20;1.00;;;;;;6155625;23;20147;-78
2023/03/25 03:38:42;;;;;;;3.77;0.80;;;9.30;1.00;;;;;;6128954;23;20148;-78
2023/03/25 03:41:11;;;;;;;1.37;0.53;;;9.20;1.00;;;;;;6128566;23;20554;-78
2023/03/25 03:43:47;;;;;;;2.20;0.70;;;9.20;1.00;;;;;;6154633;23;20187;-79
2023/03/25 03:46:19;;;;;;;1.53;0.60;;;9.10;1.00;;;;;;6154248;23;20150;-78
2023/03/25 03:48:49;;;;;;;1.87;0.57;;;9.10;1.00;;;;;;6154391;23;20487;-78
2023/03/25 03:51:28;;;;;;;1.30;0.77;;;9.00;1.00;;;;;;6154003;23;20147;-78
2023/03/25 03:53:57;;;;;;;2.33;0.63;;;9.00;1.00;;;;;;6127633;23;20187;-78
2023/03/25 03:56:40;;;;;;;2.00;0.60;;;8.90;1.00;;;;;;6154735;23;20659;-78
2023/03/25 03:59:11;;;;;;;0.80;0.50;;;8.90;1.00;;;;;;6128679;23;20148;-78
2023/03/25 04:01:45;;;;;;;1.47;0.53;;;8.80;1.00;;;;;;6128816;23;20160;-77
2023/03/25 04:04:16;;;;;;;1.33;0.60;;;8.80;1.00;;;;;;6154066;23;20524;-78
2023/03/25 04:07:06;;;;;;;0.60;0.40;;;8.80;1.00;;;;;;6154709;23;20247;-77
2023/03/25 04:09:55;;;;;;;1.33;0.50;;;8.70;1.00;;;;;;6155328;23;20183;-79
2023/03/25 04:12:27;;;;;;;2.00;0.63;;;8.70;1.00;;;;;;6154549;23;20222;-78
2023/03/25 04:14:54;;;;;;;1.47;0.83;;;8.60;1.00;;;;;;6154485;23;20171;-78
2023/03/25 04:17:21;;;;;;;0.63;0.50;;;8.60;1.00;;;;;;6154596;23;20178;-77
2023/03/25 04:19:47;;;;;;;2.20;0.50;;;8.60;1.00;;;;;;6153920;23;20155;-77
2023/03/25 04:22:16;;;;;;;2.23;0.87;;;8.50;1.00;;;;;;6154311;23;20588;-77
2023/03/25 04:24:42;;;;;;;2.60;0.80;;;8.50;1.00;;;;;;6127692;23;20179;-78
2023/03/25 04:27:12;;;;;;;1.63;0.70;;;8.50;1.00;;;;;;6154110;23;20162;-77
2023/03/25 04:29:39;;;;;;;2.87;0.80;;;8.40;1.00;;;;;;6127640;23;20607;-78
2023/03/25 04:32:07;;;;;;;2.47;0.67;;;8.40;1.00;;;;;;6127444;23;20219;-77
2023/03/25 04:34:32;;;;;;;1.60;0.80;;;8.40;1.00;;;;;;6153757;23;20218;-78
2023/03/25 04:36:58;;;;;;;1.63;0.70;;;8.40;1.00;;;;;;6128852;23;20156;-78
2023/03/25 04:39:24;;;;;;;2.03;0.60;;;8.40;1.00;;;;;;6153921;23;20144;-78
2023/03/25 04:41:52;;;;;;;2.83;0.87;;;8.40;1.00;;;;;;6128035;23;20156;-77
2023/03/25 04:44:20;;;;;;;2.83;0.93;;;8.40;1.00;;;;;;6127505;23;20640;-78
2023/03/25 04:46:46;;;;;;;3.70;1.00;;;8.40;1.00;;;;;;6154146;23;20160;-78
2023/03/25 04:49:22;;;;;;;2.33;0.90;;;8.50;1.00;;;;;;6153828;23;20203;-77
2023/03/25 04:51:50;;;;;;;2.53;1.13;;;8.50;1.00;;;;;;6127734;23;20187;-78
2023/03/25 04:54:20;;;;;;;2.77;0.73;;;8.40;1.00;;;;;;6127583;23;20200;-78
2023/03/25 04:56:48;;;;;;;1.80;0.90;;;8.40;1.00;;;;;;6127778;23;20472;-78
2023/03/25 04:59:14;;;;;;;1.90;0.90;;;8.40;1.00;;;;;;6127374;23;20156;-79
2023/03/25 05:01:44;;;;;;;3.47;0.80;;;8.40;1.00;;;;;;6152943;23;20152;-78
2023/03/25 05:04:12;;;;;;;2.77;1.07;;;8.40;1.00;;;;;;6127050;23;20187;-78
2023/03/25 05:06:41;;;;;;;2.97;0.90;;;8.40;1.00;;;;;;6127422;23;20183;-78
2023/03/25 05:09:14;;;;;;;3.60;1.00;;;8.50;1.00;;;;;;6127314;23;20479;-78
2023/03/25 05:11:41;;;;;;;1.90;0.80;;;8.60;1.00;;;;;;6151447;23;20520;-78
2023/03/25 05:14:12;;;;;;;1.97;0.90;;;8.50;1.00;;;;;;6151318;23;20215;-77
2023/03/25 05:16:38;;;;;;;2.53;0.80;;;8.60;1.00;;;;;;6152447;23;20632;-78
2023/03/25 05:19:05;;;;;;;1.93;1.03;;;8.60;1.00;;;;;;6126371;23;20186;-78
2023/03/25 05:21:31;;;;;;;2.77;1.07;;;8.60;1.00;;;;;;6127166;23;20549;-79
2023/03/25 05:23:57;;;;;;;1.63;0.80;;;8.60;1.00;;;;;;6153418;23;20187;-78
2023/03/25 05:26:23;;;;;;;2.00;1.00;;;8.50;1.00;;;;;;6153459;23;20156;-77
2023/03/25 05:28:50;;;;;;;1.77;0.80;;;8.50;1.00;;;;;;6152939;23;20152;-77
2023/03/25 05:31:16;;;;;;;2.90;1.00;;;8.50;1.00;;;;;;6124690;23;20160;-77
2023/03/25 05:33:42;;;;;;;3.13;0.83;;;8.50;1.00;;;;;;6147933;23;20233;-78
2023/03/25 05:36:09;;;;;;;1.43;0.70;;;8.50;1.00;;;;;;6122346;23;20190;-77
2023/03/25 05:38:36;;;;;;;2.53;0.80;;;8.50;1.00;;;;;;6122972;23;20160;-77
2023/03/25 05:41:01;;;;;;;3.37;0.90;;;8.60;1.00;;;;;;6145400;23;20625;-79
2023/03/25 05:43:27;;;;;;;2.50;0.97;;;8.70;1.00;;;;;;6121870;23;20159;-77
2023/03/25 05:45:52;;;;;;;2.43;0.80;;;8.70;1.00;;;;;;6147744;23;20509;-77
2023/03/25 05:48:18;;;;;;;2.07;0.90;;;8.80;1.00;;;;;;6148331;23;20226;-78
2023/03/25 05:50:44;;;;;;;2.33;1.10;;;8.80;1.00;;;;;;6147694;23;20502;-78
2023/03/25 05:53:16;;;;;;;1.53;0.70;;;8.90;1.00;;;;;;6121740;23;20863;-78
2023/03/25 05:55:42;;;;;;;1.27;0.80;;;8.90;1.00;;;;;;6121350;23;20269;-77
2023/03/25 05:58:08;;;;;;;1.10;0.70;;;9.00;1.00;;;;;;6148058;23;20151;-77
2023/03/25 06:00:34;;;;;;;2.70;1.00;;;9.00;1.00;;;;;;6147606;23;20156;-77
2023/03/25 06:03:00;;;;;;;3.13;0.80;;;9.10;1.00;;;;;;6121765;23;20234;-78
2023/03/25 06:05:28;;;;;;;1.37;0.70;;;9.10;1.00;;;;;;6121218;23;20511;-79
2023/03/25 06:07:55;;;;;;;2.83;0.90;;;9.10;1.00;;;;;;6147774;23;20159;-77
2023/03/25 06:10:21;;;;;;;1.23;0.70;;;9.10;1.00;;;;;;6121612;23;20162;-78
2023/03/25 06:12:51;;;;;;;1.07;0.50;;;9.10;1.00;;;;;;6147488;23;20179;-79
2023/03/25 06:15:17;;;;;;;1.63;0.70;;;9.10;1.00;;;;;;6121403;23;20175;-77
2023/03/25 06:17:45;;;;;;;0.80;0.60;;;9.00;1.00;;;;;;6148294;23;20160;-78
2023/03/25 06:20:12;;;;;;;2.33;0.80;;;9.10;1.00;;;;;;6147673;23;20167;-78
2023/03/25 06:22:41;;;;;;;2.23;0.60;;;9.00;1.00;;;;;;6121010;23;20174;-77
2023/03/25 06:25:07;;;;;;;1.63;0.80;;;9.00;1.00;;;;;;6120979;23;20615;-77
2023/03/25 06:27:33;;;;;;;2.47;0.70;;;9.00;1.00;;;;;;6147462;23;20155;-78
2023/03/25 06:30:00;;;;;;;2.37;0.90;;;9.00;1.00;;;;;;6147603;23;20977;-77
2023/03/25 06:32:26;;;;;;;0.80;0.50;;;9.10;1.00;;;;;;6147395;23;20674;-77
2023/03/25 06:34:51;;;;;;;2.60;0.80;;;9.20;1.00;;;;;;6121314;23;20262;-78
2023/03/25 06:37:17;;;;;;;3.40;0.90;;;9.10;1.00;;;;;;6121249;23;20186;-78
2023/03/25 06:39:48;;;;;;;1.97;0.70;;;9.20;1.00;;;;;;6147446;23;20183;-77
2023/03/25 06:42:14;;;;;;;5.00;1.17;;;9.40;1.00;;;;;;6147416;23;20518;-78
2023/03/25 06:44:39;;;;;;;2.00;0.80;;;9.40;1.00;;;;;;6120912;23;20179;-78
2023/03/25 06:47:05;;;;;;;0.73;0.50;;;9.50;1.00;;;;;;6121181;23;20764;-78
2023/03/25 06:49:31;;;;;;;1.87;0.90;;;9.50;1.00;;;;;;6146647;23;20158;-78
2023/03/25 06:51:57;;;;;;;1.63;0.93;;;9.50;1.00;;;;;;6119894;23;20194;-77
2023/03/25 06:54:23;;;;;;;0.67;0.60;;;9.60;1.00;;;;;;6146008;23;20191;-78
2023/03/25 06:56:48;;;;;;;2.00;0.70;;;9.60;1.00;;;;;;6120294;23;20171;-77
2023/03/25 06:59:14;;;;;;;2.97;0.93;;;9.50;1.00;;;;;;6119819;23;20164;-79
2023/03/25 07:01:40;;;;;;;1.17;0.60;;;9.60;1.00;;;;;;6146074;23;20662;-77
2023/03/25 07:04:05;;;;;;;1.30;0.60;;;9.50;1.00;;;;;;6119494;23;20536;-77
2023/03/25 07:06:31;;;;;;;1.10;0.70;;;9.70;1.00;;;;;;6145781;23;21047;-78
2023/03/25 07:08:56;;;;;;;0.90;0.50;;;9.80;1.00;;;;;;6146367;23;20160;-77
2023/03/25 07:11:27;;;;;;;0.90;0.50;;;9.70;1.00;;;;;;6147675;23;20230;-76
2023/03/25 07:13:52;;;;;;;2.03;0.60;;;9.70;1.00;;;;;;6122767;23;20210;-78
2023/03/25 07:16:20;;;;;;;1.83;0.70;;;9.60;1.00;;;;;;6149847;23;20546;-77
2023/03/25 07:18:45;;;;;;;1.83;0.70;;;9.60;1.00;;;;;;6122268;23;20160;-77
2023/03/25 07:21:11;;;;;;;2.17;0.87;;;9.60;1.00;;;;;;6148677;23;20548;-78
2023/03/25 07:23:37;;;;;;;3.57;0.77;;;9.50;1.00;;;;;;6149143;23;20251;-79
2023/03/25 07:26:02;;;;;;;2.13;0.70;;;9.50;1.00;;;;;;6148135;23;20203;-78
2023/03/25 07:28:28;;;;;;;1.87;0.67;;;9.50;1.00;;;;;;6148847;23;20203;-77
2023/03/25 07:30:53;;;;;;;1.77;0.80;;;9.60;1.00;;;;;;6145473;23;20150;-78
2023/03/25 07:33:20;;;;;;;1.33;0.70;;;9.60;1.00;;;;;;6123632;23;20195;-79
2023/03/25 07:35:45;;;;;;;2.27;0.77;;;9.60;1.00;;;;;;6149159;23;20180;-77
2023/03/25 07:38:11;;;;;;;1.73;0.93;;;9.60;1.00;;;;;;6149389;23;20682;-78
2023/03/25 07:40:37;;;;;;;1.43;0.60;;;9.60;1.00;;;;;;6123972;23;20170;-77
2023/03/25 07:43:02;;;;;;;2.00;0.70;;;9.70;1.00;;;;;;6123006;23;20183;-79
2023/03/25 07:45:28;;;;;;;2.30;1.00;;;9.90;1.00;;;;;;6149279;23;20179;-77
2023/03/25 07:47:54;;;;;;;1.37;0.60;;;10.20;1.00;;;;;;6150002;23;20156;-78
2023/03/25 07:50:21;;;;;;;1.53;0.60;;;10.60;1.00;;;;;;6150978;23;20160;-80
2023/03/25 07:52:47;;;;;;;1.57;0.70;;;10.80;1.00;;;;;;6149268;23;20234;-79
2023/03/25 07:55:13;;;;;;;2.50;0.70;;;10.70;1.00;;;;;;6150454;23;20235;-78
2023/03/25 07:57:42;;;;;;;2.50;0.80;;;10.60;1.00;;;;;;6150861;23;20148;-77
2023/03/25 08:00:09;;;;;;;1.33;0.60;;;10.60;1.00;;;;;;6150463;23;20813;-78
2023/03/25 08:02:35;;;;;;;1.73;0.97;;;10.50;1.00;;;;;;6149782;23;20144;-80
2023/03/25 08:05:01;;;;;;;2.43;1.00;;;10.30;1.00;;;;;;6149038;23;20195;-78
2023/03/25 08:07:27;;;;;;;3.50;0.77;;;10.10;1.00;;;;;;6149301;23;20968;-78
2023/03/25 08:09:53;;;;;;;2.00;0.77;;;10.00;1.00;;;;;;6149871;23;20231;-79
2023/03/25 08:12:19;;;;;;;1.30;0.80;;;10.00;1.00;;;;;;6123409;23;20206;-78
2023/03/25 08:14:45;;;;;;;1.90;0.60;;;10.20;1.00;;;;;;6149094;23;20213;-78
2023/03/25 08:17:10;;;;;;;1.77;0.70;;;10.30;1.00;;;;;;6123542;23;20245;-77
2023/03/25 08:19:36;;;;;;;2.07;0.80;;;10.30;1.00;;;;;;6149728;23;20156;-79
2023/03/25 08:22:02;;;;;;;2.87;1.03;;;10.20;1.00;;;;;;6149424;23;20152;-78
2023/03/25 08:24:28;;;;;;;2.40;0.80;;;10.30;1.00;;;;;;6148932;23;20175;-77
2023/03/25 08:26:55;;;;;;;1.70;0.83;;;10.40;1.00;;;;;;6123325;23;20202;-77
2023/03/25 08:29:21;;;;;;;1.50;0.90;;;10.50;1.00;;;;;;6122677;23;20163;-77
2023/03/25 08:31:50;;;;;;;1.73;0.90;;;10.60;1.00;;;;;;6148645;23;20159;-78
2023/03/25 08:34:17;;;;;;;1.90;0.70;;;10.80;1.00;;;;;;6148887;23;20183;-79
2023/03/25 08:36:43;;;;;;;2.17;0.80;;;10.90;1.00;;;;;;6122395;23;20160;-78
2023/03/25 08:39:10;;;;;;;2.73;0.87;;;10.80;1.00;;;;;;6149166;23;20154;-78
2023/03/25 08:41:37;;;;;;;1.35;0.80;;;10.80;1.00;;;;;;6147861;23;20136;-79
2023/03/25 08:44:04;;;;;;;2.03;0.90;;;10.70;1.00;;;;;;6122064;23;20183;-79
2023/03/25 08:46:29;;;;;;;1.93;0.77;;;10.70;1.00;;;;;;6147305;23;20144;-76
2023/03/25 08:48:55;;;;;;;2.30;0.90;;;10.70;1.00;;;;;;6146098;23;20150;-78
2023/03/25 08:51:20;;;;;;;1.93;0.90;;;10.90;1.00;;;;;;6145363;23;20532;-77
2023/03/25 08:53:46;;;;;;;1.92;0.77;;;11.10;1.00;;;;;;6146105;23;20172;-81
2023/03/25 08:56:12;;;;;;;1.20;0.90;;;11.00;1.00;;;;;;6119515;23;20160;-76
2023/03/25 08:58:38;;;;;;;2.30;0.70;;;10.80;1.00;;;;;;6146322;23;20152;-78
2023/03/25 09:01:03;;;;;;;2.77;0.90;;;10.80;1.00;;;;;;6120237;23;20470;-79
2023/03/25 09:03:29;;;;;;;1.13;0.90;;;10.90;1.00;;;;;;6146064;23;20564;-79
2023/03/25 09:05:54;;;;;;;1.05;0.60;;;11.10;1.00;;;;;;6122019;23;20203;-80
2023/03/25 09:08:20;;;;;;;1.83;0.70;;;11.10;1.00;;;;;;6129071;23;20167;-81
2023/03/25 09:10:46;;;;;;;3.47;1.52;;;11.40;1.00;;;;;;6126745;23;20168;-80
2023/03/25 09:13:11;;;;;;;1.10;0.82;;;11.50;1.00;;;;;;6153595;23;20251;-81
2023/03/25 09:15:37;;;;;;;1.35;0.70;;;11.30;1.00;;;;;;6126907;23;20188;-80
2023/03/25 09:18:04;;;;;;;1.10;0.60;;;11.40;1.00;;;;;;6151241;23;20155;-79
2023/03/25 09:20:30;;;;;;;3.65;1.40;;;11.40;1.00;;;;;;6123745;23;20230;-79
2023/03/25 09:22:56;;;;;;;2.95;0.98;;;11.40;1.00;;;;;;6146009;23;20170;-79
2023/03/25 09:25:22;;;;;;;2.20;0.70;;;11.50;1.00;;;;;;6118282;23;20591;-79
2023/03/25 09:27:47;;;;;;;1.35;0.73;;;11.70;1.00;;;;;;6119810;23;20589;-79
2023/03/25 09:30:14;;;;;;;2.17;0.77;;;11.80;1.00;;;;;;6146511;23;20156;-79
2023/03/25 09:32:40;;;;;;;2.67;0.73;;;11.70;1.00;;;;;;6147559;23;20211;-80
2023/03/25 09:35:06;;;;;;;1.63;0.60;;;11.60;1.00;;;;;;6149086;23;20519;-79
2023/03/25 09:37:33;;;;;;;2.67;0.70;;;11.50;1.00;;;;;;6124965;23;20164;-80
2023/03/25 09:39:58;;;;;;;0.77;0.40;;;11.30;1.00;;;;;;6151631;23;20155;-80
2023/03/25 09:42:36;;;;;;;3.22;0.60;;;11.20;1.00;;;;;;6122069;23;20655;-79
2023/03/25 09:45:29;;;;;;;2.55;0.60;;;11.00;1.00;;;;;;6146556;23;20516;-80
2023/03/25 09:48:24;;;;;;;1.53;0.60;;;10.80;1.00;;;;;;6120644;23;20152;-78
2023/03/25 09:50:50;;;;;;;2.27;0.67;;;11.40;1.00;;;;;;6146385;23;20329;-78
2023/03/25 09:53:21;;;;;;;1.63;0.60;;;10.30;1.00;;;;;;6119352;23;20234;-77
2023/03/25 09:55:48;;;;;;;1.27;0.60;;;10.20;1.00;;;;;;6147678;23;20183;-78
2023/03/25 09:58:30;;;;;;;1.87;0.50;;;10.10;1.00;;;;;;6147583;23;20194;-78
2023/03/25 10:01:06;;;;;;;1.63;0.67;;;10.10;1.00;;;;;;6120894;23;20147;-78
2023/03/25 10:03:52;;;;;;;1.83;0.50;;;10.00;1.00;;;;;;6120037;23;20217;-79
2023/03/25 10:06:20;;;;;;;1.20;0.50;;;10.00;1.00;;;;;;6145117;23;20597;-80
2023/03/25 10:09:22;;;;;;;1.50;0.50;;;10.00;1.00;;;;;;6145155;23;20156;-79
2023/03/25 10:12:16;;;;;;;1.60;0.70;;;11.00;1.00;;;;;;6144325;23;20198;-78
2023/03/25 10:15:11;;;;;;;0.73;0.40;;;10.40;1.00;;;;;;6144693;23;20210;-79
2023/03/25 10:17:43;;;;;;;1.80;0.60;;;10.40;1.00;;;;;;6118152;23;20182;-79
2023/03/25 10:20:20;;;;;;;1.00;0.70;;;10.20;1.00;;;;;;6144241;23;20147;-78
2023/03/25 10:23:13;;;;;;;1.63;0.70;;;10.10;1.00;;;;;;6145877;23;20553;-79
2023/03/25 10:25:44;;;;;;;0.57;0.57;;;10.00;1.00;;;;;;6119445;23;20183;-79
2023/03/25 10:28:18;;;;;;;2.40;0.80;;;10.20;1.00;;;;;;6145224;23;20168;-79
2023/03/25 10:30:47;;;;;;;0.50;0.50;;;10.40;1.00;;;;;;6145537;23;20457;-78
2023/03/25 10:33:35;;;;;;;0.80;0.60;;;10.40;1.00;;;;;;6145795;23;20230;-78
2023/03/25 10:36:03;;;;;;;1.70;0.57;;;10.40;1.00;;;;;;6145570;23;20225;-79
2023/03/25 10:38:32;;;;;;;1.77;0.60;;;10.40;1.00;;;;;;6145643;23;20179;-78
2023/03/25 10:41:29;;;;;;;0.73;0.60;;;10.40;1.00;;;;;;6146950;23;20649;-78
2023/03/25 10:43:55;;;;;;;1.27;0.80;;;10.40;1.00;;;;;;6105651;23;20164;-78
2023/03/25 10:46:59;;;;;;;1.33;0.70;;;10.40;1.00;;;;;;6121709;23;20557;-79
2023/03/25 10:49:29;;;;;;;2.30;0.80;;;10.50;1.00;;;;;;6139206;23;20187;-77
2023/03/25 10:51:57;;;;;;;1.30;0.90;;;10.50;1.00;;;;;;6121192;23;20152;-78
2023/03/25 10:54:30;;;;;;;1.93;0.80;;;10.40;1.00;;;;;;6147267;23;20195;-79
2023/03/25 10:57:01;;;;;;;1.30;0.70;;;10.40;1.00;;;;;;6121367;23;20152;-78
2023/03/25 10:59:45;;;;;;;3.33;1.20;;;10.50;1.00;;;;;;6123199;23;20143;-79
2023/03/25 11:02:13;;;;;;;1.90;0.80;;;10.60;1.00;;;;;;6147664;23;20139;-79
2023/03/25 11:04:42;;;;;;;1.63;0.80;;;10.70;1.00;;;;;;6147781;23;20194;-79
2023/03/25 11:07:18;;;;;;;3.27;0.90;;;10.80;1.00;;;;;;6143695;23;20171;-78
2023/03/25 11:09:44;;;;;;;2.50;1.00;;;11.10;1.00;;;;;;6147589;23;20568;-78
2023/03/25 11:12:09;;;;;;;2.30;1.00;;;11.50;1.00;;;;;;6148577;23;20214;-78
2023/03/25 11:14:38;;;;;;;1.80;0.90;;;11.70;1.00;;;;;;6147973;23;20191;-79
2023/03/25 11:17:13;;;;;;;2.83;0.90;;;11.70;1.00;;;;;;6123150;23;20160;-78
2023/03/25 11:19:49;;;;;;;3.28;1.00;;;11.50;1.00;;;;;;6148979;23;20178;-79
2023/03/25 11:22:25;;;;;;;3.22;1.13;;;11.40;1.00;;;;;;6147036;23;20152;-78
2023/03/25 11:24:56;;;;;;;2.10;0.90;;;11.40;1.00;;;;;;6121742;23;20209;-79
2023/03/25 11:27:25;;;;;;;1.75;0.82;;;11.40;1.00;;;;;;6122794;23;20255;-79
2023/03/25 11:29:55;;;;;;;3.25;1.35;;;11.50;1.00;;;;;;6148875;23;20162;-79
2023/03/25 11:32:29;;;;;;;1.85;1.00;;;11.50;1.00;;;;;;6123751;23;20163;-78
2023/03/25 11:34:55;;;;;;;3.10;0.90;;;11.40;1.00;;;;;;6149198;23;20171;-78
2023/03/25 11:37:23;;;;;;;2.97;1.17;;;11.30;1.00;;;;;;6150352;23;20643;-79
2023/03/25 11:39:54;;;;;;;2.33;1.40;;;11.20;1.00;;;;;;6122871;23;20482;-78
2023/03/25 11:42:41;;;;;;;2.47;1.13;;;11.00;1.00;;;;;;6149897;23;20597;-79
2023/03/25 11:45:26;;;;;;;3.35;1.05;;;11.10;1.00;;;;;;6124933;23;20199;-79
2023/03/25 11:47:56;;;;;;;3.23;1.10;;;11.40;1.00;;;;;;6123991;23;20144;-79
2023/03/25 11:50:24;;;;;;;2.60;1.15;;;11.60;1.00;;;;;;6152894;23;20140;-80
2023/03/25 11:53:00;;;;;;;2.22;1.10;;;11.70;1.00;;;;;;6126323;23;20218;-78
2023/03/25 11:55:35;;;;;;;2.15;1.15;;;11.80;1.00;;;;;;6127989;23;20195;-79
2023/03/25 11:58:03;;;;;;;2.95;1.40;;;12.00;1.00;;;;;;6126310;23;20156;-79
2023/03/25 12:00:36;;;;;;;3.05;1.42;;;12.10;1.00;;;;;;6152084;23;20136;-79
2023/03/25 12:03:14;;;;;;;3.85;1.30;;;12.30;1.00;;;;;;6151028;23;20148;-78
2023/03/25 12:05:40;;;;;;;4.22;1.70;;;12.30;1.00;;;;;;6149904;23;20624;-79
2023/03/25 12:08:16;;;;;;;1.98;1.48;;;12.40;1.00;;;;;;6125661;23;20247;-79
2023/03/25 12:11:00;;;;;;;4.82;1.58;;;12.40;1.00;;;;;;6124954;23;20194;-78
2023/03/25 12:14:00;;;;;;;2.55;1.30;;;12.50;1.00;;;;;;6151883;23;20171;-79
2023/03/25 12:16:26;;;;;;;2.13;1.20;;;12.30;1.00;;;;;;6150766;23;20298;-79
2023/03/25 12:18:55;;;;;;;2.28;1.13;;;12.10;1.00;;;;;;6124924;23;20167;-81
2023/03/25 12:21:47;;;;;;;2.53;1.50;;;12.00;1.00;;;;;;6123221;23;20164;-78
2023/03/25 12:24:29;;;;;;;3.00;1.48;;;12.10;1.00;;;;;;6150987;23;20206;-80
2023/03/25 12:27:23;;;;;;;3.13;1.40;;;12.30;1.00;;;;;;6150294;23;20140;-79
2023/03/25 12:30:06;;;;;;;2.72;1.20;;;12.40;1.00;;;;;;6146559;23;20143;-78
2023/03/25 12:32:41;;;;;;;2.65;1.50;;;12.40;1.00;;;;;;6121288;23;20574;-78
2023/03/25 12:35:41;;;;;;;3.70;2.00;;;12.40;1.00;;;;;;6146490;23;20178;-78
2023/03/25 12:38:35;;;;;;;2.88;1.33;;;12.30;1.00;;;;;;6122566;23;20155;-78
2023/03/25 12:41:37;;;;;;;2.83;1.40;;;12.20;1.00;;;;;;6148386;23;20171;-79
2023/03/25 12:44:27;;;;;;;3.90;1.60;;;12.10;1.00;;;;;;6147576;23;20175;-77
2023/03/25 12:47:01;;;;;;;4.95;1.38;;;12.10;1.00;;;;;;6149311;23;20150;-78
